Pagrindinis puslapis
METAR-TAF:

METAR-TAF

Oro uostai :

Cerklje ob Krki, Slovėnija

platuma: 45-53-59N, ilguma: 15-30-55E, Aukštis: 157 m

Dabartinis oras

Ataskaita buvo paskelbta 38 minutes, ne 03:30 UTC
Ramus vėjas
Temperatūra 0°C
Drėgmė 93%
Slėgis 1025 hPa
Matomumas: 5000 m
rūkana

METAR: LJCE 180330Z AUTO 00000KT 5000 BR OVC003/// M00/M01 Q1025

Laikas: 05:08 (04:08 UTC)

Prognozė

Ataskaita buvo paskelbta 2 valandos ir 8 minutes, ne 02:00 UTC
Prognozė galioja nuo 18 metu 03 UTC su 18 metu 12 UTC
Vėjas 1 kt nuo kintamojo kryptimis
Matomumas: 7000 m
Apsiniaukę ne aukštis 600 ft
Laikinai
nuo 18 metu 03 UTC su 18 metu 09 UTC
Matomumas: 3500 m
Apsiniaukę ne aukštis 300 ft
rūkana

TAF: LJCE 180200Z 1803/1812 VRB01KT 7000 OVC006 TEMPO 1803/1809 3500 BR OVC003

Orai ataskaitas ir orų prognozės (METAR, TAF).

turimą stotys yra geltonos ir raudonos taškus žemėlapyje.

Perkelti pele per norėdami pamatyti stoties vardą.

Tada spustelėkite, norėdami matyti oro stebėjimo ir prognozės.

Norėdami pakeisti žemėlapį: spustelėkite ant žalios mygtukų su juodo kryžiaus žemyn,; žalią mygtuką su brūkšneliu, jei norite nutolinti; arba žalių rodyklių gretimoms žemėlapius.


METAR-TAF: